sensor_id;sensor_type;location;lat;lon;timestamp;temperature;humidity
20862;DHT22;10591;52.532;13.348;2022-10-18T00:01:32;17.40;80.59
20862;DHT22;10591;52.532;13.348;2022-10-18T00:04:02;17.36;80.64
20862;DHT22;10591;52.532;13.348;2022-10-18T00:06:33;17.36;80.76
20862;DHT22;10591;52.532;13.348;2022-10-18T00:09:05;17.32;80.83
20862;DHT22;10591;52.532;13.348;2022-10-18T00:11:35;17.31;81.36
20862;DHT22;10591;52.532;13.348;2022-10-18T00:14:05;17.39;81.58
20862;DHT22;10591;52.532;13.348;2022-10-18T00:16:36;17.39;81.55
20862;DHT22;10591;52.532;13.348;2022-10-18T00:19:06;17.50;81.17
20862;DHT22;10591;52.532;13.348;2022-10-18T00:21:37;17.41;81.61
20862;DHT22;10591;52.532;13.348;2022-10-18T00:24:07;17.46;81.67
20862;DHT22;10591;52.532;13.348;2022-10-18T00:26:38;17.42;81.81
20862;DHT22;10591;52.532;13.348;2022-10-18T00:29:11;17.47;81.77
20862;DHT22;10591;52.532;13.348;2022-10-18T00:31:42;17.43;81.79
20862;DHT22;10591;52.532;13.348;2022-10-18T00:34:15;17.42;81.83
20862;DHT22;10591;52.532;13.348;2022-10-18T00:36:45;17.41;81.88
20862;DHT22;10591;52.532;13.348;2022-10-18T00:39:18;17.41;81.96
20862;DHT22;10591;52.532;13.348;2022-10-18T00:41:49;17.42;81.88
20862;DHT22;10591;52.532;13.348;2022-10-18T00:47:05;17.35;82.04
20862;DHT22;10591;52.532;13.348;2022-10-18T00:49:43;17.30;82.13
20862;DHT22;10591;52.532;13.348;2022-10-18T00:52:23;17.27;82.28
20862;DHT22;10591;52.532;13.348;2022-10-18T00:54:49;17.24;82.42
20862;DHT22;10591;52.532;13.348;2022-10-18T00:57:21;17.25;82.45
20862;DHT22;10591;52.532;13.348;2022-10-18T00:59:52;17.24;82.52
20862;DHT22;10591;52.532;13.348;2022-10-18T01:02:24;17.27;82.45
20862;DHT22;10591;52.532;13.348;2022-10-18T01:04:55;17.26;82.48
20862;DHT22;10591;52.532;13.348;2022-10-18T01:13:11;17.37;82.30
20862;DHT22;10591;52.532;13.348;2022-10-18T01:16:06;17.30;82.48
20862;DHT22;10591;52.532;13.348;2022-10-18T01:21:33;17.24;82.70
20862;DHT22;10591;52.532;13.348;2022-10-18T01:27:42;17.18;83.10
20862;DHT22;10591;52.532;13.348;2022-10-18T01:32:58;17.21;83.01
20862;DHT22;10591;52.532;13.348;2022-10-18T01:35:34;17.26;82.94
20862;DHT22;10591;52.532;13.348;2022-10-18T01:38:08;17.22;83.09
20862;DHT22;10591;52.532;13.348;2022-10-18T01:40:40;17.20;83.13
20862;DHT22;10591;52.532;13.348;2022-10-18T01:43:13;17.14;83.36
20862;DHT22;10591;52.532;13.348;2022-10-18T01:45:44;17.11;83.63
20862;DHT22;10591;52.532;13.348;2022-10-18T01:48:15;17.10;83.67
20862;DHT22;10591;52.532;13.348;2022-10-18T01:50:47;17.10;83.75
20862;DHT22;10591;52.532;13.348;2022-10-18T01:53:30;17.08;83.82
20862;DHT22;10591;52.532;13.348;2022-10-18T01:56:14;17.08;83.96
20862;DHT22;10591;52.532;13.348;2022-10-18T01:58:52;17.03;84.08
20862;DHT22;10591;52.532;13.348;2022-10-18T02:01:39;17.20;83.80
20862;DHT22;10591;52.532;13.348;2022-10-18T02:04:39;17.12;83.78
20862;DHT22;10591;52.532;13.348;2022-10-18T02:06:46;17.10;83.87
20862;DHT22;10591;52.532;13.348;2022-10-18T02:09:22;17.12;83.78
20862;DHT22;10591;52.532;13.348;2022-10-18T02:11:54;17.20;83.55
20862;DHT22;10591;52.532;13.348;2022-10-18T02:14:26;17.11;83.88
20862;DHT22;10591;52.532;13.348;2022-10-18T02:16:58;17.07;84.08
20862;DHT22;10591;52.532;13.348;2022-10-18T02:19:41;17.06;84.28
20862;DHT22;10591;52.532;13.348;2022-10-18T02:22:13;17.07;84.31
20862;DHT22;10591;52.532;13.348;2022-10-18T02:24:50;17.05;84.30
20862;DHT22;10591;52.532;13.348;2022-10-18T02:27:21;17.11;84.19
20862;DHT22;10591;52.532;13.348;2022-10-18T02:29:52;17.04;84.45
20862;DHT22;10591;52.532;13.348;2022-10-18T02:32:29;17.02;84.68
20862;DHT22;10591;52.532;13.348;2022-10-18T02:35:19;17.20;84.14
20862;DHT22;10591;52.532;13.348;2022-10-18T02:37:51;17.02;84.64
20862;DHT22;10591;52.532;13.348;2022-10-18T02:40:24;17.00;84.78
20862;DHT22;10591;52.532;13.348;2022-10-18T02:42:57;16.96;84.94
20862;DHT22;10591;52.532;13.348;2022-10-18T02:45:28;16.90;85.08
20862;DHT22;10591;52.532;13.348;2022-10-18T02:47:58;16.87;85.14
20862;DHT22;10591;52.532;13.348;2022-10-18T02:50:29;16.86;85.18
20862;DHT22;10591;52.532;13.348;2022-10-18T02:52:59;16.83;85.20
20862;DHT22;10591;52.532;13.348;2022-10-18T02:55:29;16.82;85.27
20862;DHT22;10591;52.532;13.348;2022-10-18T02:58:00;16.83;85.22
20862;DHT22;10591;52.532;13.348;2022-10-18T03:00:30;16.82;85.16
20862;DHT22;10591;52.532;13.348;2022-10-18T03:03:01;16.83;85.08
20862;DHT22;10591;52.532;13.348;2022-10-18T03:05:31;16.83;85.08
20862;DHT22;10591;52.532;13.348;2022-10-18T03:08:01;16.86;84.87
20862;DHT22;10591;52.532;13.348;2022-10-18T03:10:32;16.90;84.76
20862;DHT22;10591;52.532;13.348;2022-10-18T03:13:02;16.92;84.67
20862;DHT22;10591;52.532;13.348;2022-10-18T03:15:33;16.86;84.80
20862;DHT22;10591;52.532;13.348;2022-10-18T03:18:03;16.82;84.98
20862;DHT22;10591;52.532;13.348;2022-10-18T03:20:34;16.81;85.03
20862;DHT22;10591;52.532;13.348;2022-10-18T03:23:04;16.75;85.16
20862;DHT22;10591;52.532;13.348;2022-10-18T03:25:35;16.71;85.32
20862;DHT22;10591;52.532;13.348;2022-10-18T03:28:07;16.77;85.34
20862;DHT22;10591;52.532;13.348;2022-10-18T03:30:38;16.78;85.00
20862;DHT22;10591;52.532;13.348;2022-10-18T03:33:08;16.75;85.16
20862;DHT22;10591;52.532;13.348;2022-10-18T03:35:39;16.78;85.15
20862;DHT22;10591;52.532;13.348;2022-10-18T03:38:09;16.78;85.17
20862;DHT22;10591;52.532;13.348;2022-10-18T03:40:40;16.77;85.21
20862;DHT22;10591;52.532;13.348;2022-10-18T03:43:12;16.82;85.08
20862;DHT22;10591;52.532;13.348;2022-10-18T03:45:43;16.77;85.36
20862;DHT22;10591;52.532;13.348;2022-10-18T03:48:14;16.72;85.59
20862;DHT22;10591;52.532;13.348;2022-10-18T03:50:45;16.72;85.97
20862;DHT22;10591;52.532;13.348;2022-10-18T03:53:15;16.61;86.33
20862;DHT22;10591;52.532;13.348;2022-10-18T03:55:50;16.57;86.82
20862;DHT22;10591;52.532;13.348;2022-10-18T03:58:21;16.52;87.17
20862;DHT22;10591;52.532;13.348;2022-10-18T04:00:53;16.46;87.58
20862;DHT22;10591;52.532;13.348;2022-10-18T04:03:24;16.50;87.50
20862;DHT22;10591;52.532;13.348;2022-10-18T04:05:54;16.46;87.72
20862;DHT22;10591;52.532;13.348;2022-10-18T04:08:25;16.42;87.83
20862;DHT22;10591;52.532;13.348;2022-10-18T04:10:55;16.38;87.96
20862;DHT22;10591;52.532;13.348;2022-10-18T04:13:26;16.39;88.06
20862;DHT22;10591;52.532;13.348;2022-10-18T04:15:56;16.33;88.12
20862;DHT22;10591;52.532;13.348;2022-10-18T04:18:27;16.30;88.25
20862;DHT22;10591;52.532;13.348;2022-10-18T04:20:57;16.33;88.06
20862;DHT22;10591;52.532;13.348;2022-10-18T04:23:28;16.33;88.11
20862;DHT22;10591;52.532;13.348;2022-10-18T04:26:00;16.27;88.15
20862;DHT22;10591;52.532;13.348;2022-10-18T04:28:30;16.23;88.28
20862;DHT22;10591;52.532;13.348;2022-10-18T04:31:02;16.24;88.12
20862;DHT22;10591;52.532;13.348;2022-10-18T04:33:32;16.26;88.29
20862;DHT22;10591;52.532;13.348;2022-10-18T04:36:03;16.14;88.44
20862;DHT22;10591;52.532;13.348;2022-10-18T04:38:34;16.20;88.36
20862;DHT22;10591;52.532;13.348;2022-10-18T04:41:04;16.26;88.47
20862;DHT22;10591;52.532;13.348;2022-10-18T04:43:35;16.17;88.54
20862;DHT22;10591;52.532;13.348;2022-10-18T04:46:05;16.17;88.64
20862;DHT22;10591;52.532;13.348;2022-10-18T04:48:36;16.10;88.76
20862;DHT22;10591;52.532;13.348;2022-10-18T04:51:06;16.02;88.97
20862;DHT22;10591;52.532;13.348;2022-10-18T04:53:37;16.04;88.89
20862;DHT22;10591;52.532;13.348;2022-10-18T04:56:08;16.05;89.00
20862;DHT22;10591;52.532;13.348;2022-10-18T04:58:38;16.04;88.98
20862;DHT22;10591;52.532;13.348;2022-10-18T05:01:08;15.96;89.10
20862;DHT22;10591;52.532;13.348;2022-10-18T05:03:39;16.01;89.16
20862;DHT22;10591;52.532;13.348;2022-10-18T05:06:10;16.12;89.07
20862;DHT22;10591;52.532;13.348;2022-10-18T05:08:40;16.04;88.65
20862;DHT22;10591;52.532;13.348;2022-10-18T05:11:11;15.96;88.78
20862;DHT22;10591;52.532;13.348;2022-10-18T05:13:41;15.99;88.96
20862;DHT22;10591;52.532;13.348;2022-10-18T05:16:13;16.08;88.64
20862;DHT22;10591;52.532;13.348;2022-10-18T05:18:44;15.96;88.78
20862;DHT22;10591;52.532;13.348;2022-10-18T05:21:15;16.10;88.71
20862;DHT22;10591;52.532;13.348;2022-10-18T05:23:46;15.98;88.73
20862;DHT22;10591;52.532;13.348;2022-10-18T05:26:17;16.00;88.83
20862;DHT22;10591;52.532;13.348;2022-10-18T05:28:48;15.86;88.89
20862;DHT22;10591;52.532;13.348;2022-10-18T05:31:19;15.84;89.16
20862;DHT22;10591;52.532;13.348;2022-10-18T05:33:50;15.86;89.17
20862;DHT22;10591;52.532;13.348;2022-10-18T05:36:20;15.79;89.31
20862;DHT22;10591;52.532;13.348;2022-10-18T05:38:53;15.86;89.26
20862;DHT22;10591;52.532;13.348;2022-10-18T05:41:32;15.74;89.37
20862;DHT22;10591;52.532;13.348;2022-10-18T05:44:06;15.78;89.42
20862;DHT22;10591;52.532;13.348;2022-10-18T05:46:36;15.80;89.39
20862;DHT22;10591;52.532;13.348;2022-10-18T05:49:09;15.80;89.38
20862;DHT22;10591;52.532;13.348;2022-10-18T05:51:39;15.73;89.44
20862;DHT22;10591;52.532;13.348;2022-10-18T05:54:11;15.73;89.55
20862;DHT22;10591;52.532;13.348;2022-10-18T05:56:42;15.70;89.59
20862;DHT22;10591;52.532;13.348;2022-10-18T05:59:13;15.67;89.53
20862;DHT22;10591;52.532;13.348;2022-10-18T06:01:43;15.66;89.46
20862;DHT22;10591;52.532;13.348;2022-10-18T06:04:14;15.63;89.55
20862;DHT22;10591;52.532;13.348;2022-10-18T06:06:46;15.66;89.53
20862;DHT22;10591;52.532;13.348;2022-10-18T06:09:16;15.63;89.53
20862;DHT22;10591;52.532;13.348;2022-10-18T06:11:46;15.66;89.49
20862;DHT22;10591;52.532;13.348;2022-10-18T06:14:17;15.73;89.46
20862;DHT22;10591;52.532;13.348;2022-10-18T06:16:47;15.68;89.40
20862;DHT22;10591;52.532;13.348;2022-10-18T06:19:18;15.66;89.46
20862;DHT22;10591;52.532;13.348;2022-10-18T06:21:49;15.66;89.48
20862;DHT22;10591;52.532;13.348;2022-10-18T06:24:19;15.60;89.61
20862;DHT22;10591;52.532;13.348;2022-10-18T06:26:50;15.66;89.67
20862;DHT22;10591;52.532;13.348;2022-10-18T06:29:20;15.60;89.74
20862;DHT22;10591;52.532;13.348;2022-10-18T06:31:51;15.60;89.75
20862;DHT22;10591;52.532;13.348;2022-10-18T06:34:21;15.58;89.74
20862;DHT22;10591;52.532;13.348;2022-10-18T06:36:51;15.59;89.79
20862;DHT22;10591;52.532;13.348;2022-10-18T06:39:24;15.50;89.89
20862;DHT22;10591;52.532;13.348;2022-10-18T06:41:54;15.38;89.89
20862;DHT22;10591;52.532;13.348;2022-10-18T06:44:24;15.42;89.98
20862;DHT22;10591;52.532;13.348;2022-10-18T06:46:55;15.44;90.05
20862;DHT22;10591;52.532;13.348;2022-10-18T06:49:26;15.45;90.13
20862;DHT22;10591;52.532;13.348;2022-10-18T06:51:56;15.48;90.18
20862;DHT22;10591;52.532;13.348;2022-10-18T06:54:26;15.39;90.13
20862;DHT22;10591;52.532;13.348;2022-10-18T06:56:57;15.42;90.06
20862;DHT22;10591;52.532;13.348;2022-10-18T06:59:28;15.43;90.01
20862;DHT22;10591;52.532;13.348;2022-10-18T07:02:00;15.34;89.94
20862;DHT22;10591;52.532;13.348;2022-10-18T07:04:30;15.37;89.99
20862;DHT22;10591;52.532;13.348;2022-10-18T07:07:01;15.33;89.99
20862;DHT22;10591;52.532;13.348;2022-10-18T07:09:31;15.39;90.07
20862;DHT22;10591;52.532;13.348;2022-10-18T07:12:01;15.46;90.13
20862;DHT22;10591;52.532;13.348;2022-10-18T07:14:32;15.49;90.15
20862;DHT22;10591;52.532;13.348;2022-10-18T07:17:03;15.40;90.09
20862;DHT22;10591;52.532;13.348;2022-10-18T07:19:33;15.42;90.06
20862;DHT22;10591;52.532;13.348;2022-10-18T07:22:03;15.43;89.92
20862;DHT22;10591;52.532;13.348;2022-10-18T07:24:34;15.40;89.73
20862;DHT22;10591;52.532;13.348;2022-10-18T07:27:04;15.41;89.71
20862;DHT22;10591;52.532;13.348;2022-10-18T07:29:35;15.44;89.81
20862;DHT22;10591;52.532;13.348;2022-10-18T07:32:07;15.42;89.89
20862;DHT22;10591;52.532;13.348;2022-10-18T07:34:38;15.44;89.81
20862;DHT22;10591;52.532;13.348;2022-10-18T07:37:10;15.54;89.86
20862;DHT22;10591;52.532;13.348;2022-10-18T07:39:40;15.50;89.79
20862;DHT22;10591;52.532;13.348;2022-10-18T07:42:11;15.56;89.87
20862;DHT22;10591;52.532;13.348;2022-10-18T07:44:41;15.62;89.93
20862;DHT22;10591;52.532;13.348;2022-10-18T07:47:12;15.64;89.94
20862;DHT22;10591;52.532;13.348;2022-10-18T07:49:45;15.60;89.98
20862;DHT22;10591;52.532;13.348;2022-10-18T07:52:15;15.40;89.68
20862;DHT22;10591;52.532;13.348;2022-10-18T07:54:46;15.35;89.41
20862;DHT22;10591;52.532;13.348;2022-10-18T07:57:16;15.49;89.54
20862;DHT22;10591;52.532;13.348;2022-10-18T07:59:46;15.43;89.52
20862;DHT22;10591;52.532;13.348;2022-10-18T08:02:18;15.40;89.61
20862;DHT22;10591;52.532;13.348;2022-10-18T08:04:49;15.44;89.76
20862;DHT22;10591;52.532;13.348;2022-10-18T08:07:19;15.41;89.78
20862;DHT22;10591;52.532;13.348;2022-10-18T08:09:50;15.40;89.93
20862;DHT22;10591;52.532;13.348;2022-10-18T08:12:21;15.38;90.01
20862;DHT22;10591;52.532;13.348;2022-10-18T08:14:51;15.37;90.06
20862;DHT22;10591;52.532;13.348;2022-10-18T08:17:22;15.40;90.00
20862;DHT22;10591;52.532;13.348;2022-10-18T08:19:52;15.38;89.99
20862;DHT22;10591;52.532;13.348;2022-10-18T08:22:24;15.43;90.03
20862;DHT22;10591;52.532;13.348;2022-10-18T08:24:55;15.45;90.05
20862;DHT22;10591;52.532;13.348;2022-10-18T08:27:25;15.46;90.03
20862;DHT22;10591;52.532;13.348;2022-10-18T08:29:55;15.47;89.99
20862;DHT22;10591;52.532;13.348;2022-10-18T08:32:28;15.51;90.03
20862;DHT22;10591;52.532;13.348;2022-10-18T08:34:59;15.52;90.05
20862;DHT22;10591;52.532;13.348;2022-10-18T08:37:32;15.57;90.09
20862;DHT22;10591;52.532;13.348;2022-10-18T08:40:04;15.54;90.03
20862;DHT22;10591;52.532;13.348;2022-10-18T08:45:37;15.32;89.87
20862;DHT22;10591;52.532;13.348;2022-10-18T08:48:18;15.18;90.11
20862;DHT22;10591;52.532;13.348;2022-10-18T08:50:51;15.23;90.36
20862;DHT22;10591;52.532;13.348;2022-10-18T08:53:28;15.23;90.41
20862;DHT22;10591;52.532;13.348;2022-10-18T08:56:12;15.18;90.46
20862;DHT22;10591;52.532;13.348;2022-10-18T08:58:47;15.06;90.35
20862;DHT22;10591;52.532;13.348;2022-10-18T09:04:43;15.12;90.40
20862;DHT22;10591;52.532;13.348;2022-10-18T09:07:24;15.18;90.42
20862;DHT22;10591;52.532;13.348;2022-10-18T09:09:59;15.22;90.44
20862;DHT22;10591;52.532;13.348;2022-10-18T09:12:56;15.32;90.35
20862;DHT22;10591;52.532;13.348;2022-10-18T09:18:12;15.11;90.36
20862;DHT22;10591;52.532;13.348;2022-10-18T09:20:55;15.04;90.35
20862;DHT22;10591;52.532;13.348;2022-10-18T09:23:45;15.14;90.37
20862;DHT22;10591;52.532;13.348;2022-10-18T09:26:19;15.23;90.29
20862;DHT22;10591;52.532;13.348;2022-10-18T09:37:01;14.96;90.29
20862;DHT22;10591;52.532;13.348;2022-10-18T09:39:35;15.08;90.26
20862;DHT22;10591;52.532;13.348;2022-10-18T09:42:27;15.02;90.24
20862;DHT22;10591;52.532;13.348;2022-10-18T09:47:41;15.04;90.25
20862;DHT22;10591;52.532;13.348;2022-10-18T09:50:23;15.09;90.26
20862;DHT22;10591;52.532;13.348;2022-10-18T09:56:01;15.23;90.28
20862;DHT22;10591;52.532;13.348;2022-10-18T09:58:46;15.34;90.32
20862;DHT22;10591;52.532;13.348;2022-10-18T10:01:21;15.12;90.29
20862;DHT22;10591;52.532;13.348;2022-10-18T10:03:54;15.08;90.26
20862;DHT22;10591;52.532;13.348;2022-10-18T10:06:27;15.19;90.27
20862;DHT22;10591;52.532;13.348;2022-10-18T10:11:46;15.22;90.21
20862;DHT22;10591;52.532;13.348;2022-10-18T10:14:19;15.25;90.24
20862;DHT22;10591;52.532;13.348;2022-10-18T10:16:57;15.34;90.21
20862;DHT22;10591;52.532;13.348;2022-10-18T10:19:36;15.25;90.12
20862;DHT22;10591;52.532;13.348;2022-10-18T10:22:08;15.24;90.12
20862;DHT22;10591;52.532;13.348;2022-10-18T10:24:47;15.13;90.11
20862;DHT22;10591;52.532;13.348;2022-10-18T10:27:41;15.15;90.14
20862;DHT22;10591;52.532;13.348;2022-10-18T10:30:23;15.06;90.12
20862;DHT22;10591;52.532;13.348;2022-10-18T10:32:55;14.98;90.12
20862;DHT22;10591;52.532;13.348;2022-10-18T10:35:34;15.04;90.16
20862;DHT22;10591;52.532;13.348;2022-10-18T10:38:20;15.14;90.16
20862;DHT22;10591;52.532;13.348;2022-10-18T10:40:48;14.99;90.18
20862;DHT22;10591;52.532;13.348;2022-10-18T10:43:27;15.02;90.11
20862;DHT22;10591;52.532;13.348;2022-10-18T10:48:53;15.20;90.11
20862;DHT22;10591;52.532;13.348;2022-10-18T10:51:34;15.29;90.09
20862;DHT22;10591;52.532;13.348;2022-10-18T10:54:20;15.40;90.09
20862;DHT22;10591;52.532;13.348;2022-10-18T10:59:49;15.42;90.16
20862;DHT22;10591;52.532;13.348;2022-10-18T11:02:34;15.44;90.17
20862;DHT22;10591;52.532;13.348;2022-10-18T11:05:26;15.45;90.17
20862;DHT22;10591;52.532;13.348;2022-10-18T11:08:01;15.36;90.15
20862;DHT22;10591;52.532;13.348;2022-10-18T11:10:33;15.14;90.14
20862;DHT22;10591;52.532;13.348;2022-10-18T11:13:36;15.13;90.09
20862;DHT22;10591;52.532;13.348;2022-10-18T11:16:06;15.24;90.07
20862;DHT22;10591;52.532;13.348;2022-10-18T11:18:37;15.36;90.02
20862;DHT22;10591;52.532;13.348;2022-10-18T11:21:17;15.28;89.94
20862;DHT22;10591;52.532;13.348;2022-10-18T11:23:48;15.30;89.87
20862;DHT22;10591;52.532;13.348;2022-10-18T11:26:23;15.21;89.89
20862;DHT22;10591;52.532;13.348;2022-10-18T11:29:23;15.21;89.91
20862;DHT22;10591;52.532;13.348;2022-10-18T11:43:09;15.09;89.93
20862;DHT22;10591;52.532;13.348;2022-10-18T11:51:33;15.12;89.88
20862;DHT22;10591;52.532;13.348;2022-10-18T12:05:43;15.36;89.86
20862;DHT22;10591;52.532;13.348;2022-10-18T12:08:17;15.38;89.79
20862;DHT22;10591;52.532;13.348;2022-10-18T12:10:50;15.45;89.76
20862;DHT22;10591;52.532;13.348;2022-10-18T12:13:32;15.44;89.67
20862;DHT22;10591;52.532;13.348;2022-10-18T12:15:57;15.46;89.73
20862;DHT22;10591;52.532;13.348;2022-10-18T12:18:28;15.44;89.70
20862;DHT22;10591;52.532;13.348;2022-10-18T12:21:00;15.24;89.70
20862;DHT22;10591;52.532;13.348;2022-10-18T12:26:09;15.23;89.71
20862;DHT22;10591;52.532;13.348;2022-10-18T12:29:02;15.32;89.73
20862;DHT22;10591;52.532;13.348;2022-10-18T12:31:40;15.38;89.74
20862;DHT22;10591;52.532;13.348;2022-10-18T12:34:32;15.59;89.65
20862;DHT22;10591;52.532;13.348;2022-10-18T12:37:20;15.46;89.63
20862;DHT22;10591;52.532;13.348;2022-10-18T12:39:56;15.44;89.57
20862;DHT22;10591;52.532;13.348;2022-10-18T12:42:31;15.50;89.56
20862;DHT22;10591;52.532;13.348;2022-10-18T12:45:05;15.70;89.50
20862;DHT22;10591;52.532;13.348;2022-10-18T12:47:36;15.66;89.49
20862;DHT22;10591;52.532;13.348;2022-10-18T12:50:33;15.64;89.45
20862;DHT22;10591;52.532;13.348;2022-10-18T12:55:43;15.47;89.30
20862;DHT22;10591;52.532;13.348;2022-10-18T12:58:28;15.54;89.36
20862;DHT22;10591;52.532;13.348;2022-10-18T13:01:01;15.70;89.36
20862;DHT22;10591;52.532;13.348;2022-10-18T13:03:41;15.55;89.23
20862;DHT22;10591;52.532;13.348;2022-10-18T13:06:12;15.49;89.15
20862;DHT22;10591;52.532;13.348;2022-10-18T13:08:43;15.49;89.22
20862;DHT22;10591;52.532;13.348;2022-10-18T13:11:29;15.62;89.33
20862;DHT22;10591;52.532;13.348;2022-10-18T13:14:08;15.68;89.36
20862;DHT22;10591;52.532;13.348;2022-10-18T13:16:49;15.72;89.36
20862;DHT22;10591;52.532;13.348;2022-10-18T13:19:33;15.68;89.31
20862;DHT22;10591;52.532;13.348;2022-10-18T13:22:24;15.74;89.33
20862;DHT22;10591;52.532;13.348;2022-10-18T13:25:14;15.84;89.21
20862;DHT22;10591;52.532;13.348;2022-10-18T13:27:54;15.83;89.20
20862;DHT22;10591;52.532;13.348;2022-10-18T13:30:44;15.99;89.10
20862;DHT22;10591;52.532;13.348;2022-10-18T13:33:34;15.96;88.97
20862;DHT22;10591;52.532;13.348;2022-10-18T13:36:27;16.24;89.04
20862;DHT22;10591;52.532;13.348;2022-10-18T13:39:00;16.21;88.90
20862;DHT22;10591;52.532;13.348;2022-10-18T13:44:30;16.22;88.51
20862;DHT22;10591;52.532;13.348;2022-10-18T13:52:24;16.68;87.50
20862;DHT22;10591;52.532;13.348;2022-10-18T14:03:48;16.51;87.01
20862;DHT22;10591;52.532;13.348;2022-10-18T14:06:21;16.27;86.66
20862;DHT22;10591;52.532;13.348;2022-10-18T14:09:01;16.03;86.13
20862;DHT22;10591;52.532;13.348;2022-10-18T14:11:39;15.96;85.79
20862;DHT22;10591;52.532;13.348;2022-10-18T14:17:13;16.14;86.34
20862;DHT22;10591;52.532;13.348;2022-10-18T14:19:56;16.16;86.21
20862;DHT22;10591;52.532;13.348;2022-10-18T14:22:52;16.01;86.04
20862;DHT22;10591;52.532;13.348;2022-10-18T14:28:16;15.88;86.45
20862;DHT22;10591;52.532;13.348;2022-10-18T14:30:59;15.86;86.49
20862;DHT22;10591;52.532;13.348;2022-10-18T14:33:45;15.88;86.14
20862;DHT22;10591;52.532;13.348;2022-10-18T14:38:57;15.54;86.98
20862;DHT22;10591;52.532;13.348;2022-10-18T14:41:34;15.33;86.85
20862;DHT22;10591;52.532;13.348;2022-10-18T14:44:18;15.28;87.39
20862;DHT22;10591;52.532;13.348;2022-10-18T14:47:11;15.22;87.22
20862;DHT22;10591;52.532;13.348;2022-10-18T14:49:41;15.18;86.98
20862;DHT22;10591;52.532;13.348;2022-10-18T14:52:11;15.12;86.84
20862;DHT22;10591;52.532;13.348;2022-10-18T14:54:42;15.09;87.21
20862;DHT22;10591;52.532;13.348;2022-10-18T14:57:25;15.14;87.50
20862;DHT22;10591;52.532;13.348;2022-10-18T15:00:04;15.21;86.76
20862;DHT22;10591;52.532;13.348;2022-10-18T15:02:36;15.34;86.41
20862;DHT22;10591;52.532;13.348;2022-10-18T15:07:49;15.42;86.24
20862;DHT22;10591;52.532;13.348;2022-10-18T15:10:23;15.45;86.46
20862;DHT22;10591;52.532;13.348;2022-10-18T15:12:55;15.44;86.32
20862;DHT22;10591;52.532;13.348;2022-10-18T15:15:31;15.42;86.65
20862;DHT22;10591;52.532;13.348;2022-10-18T15:18:02;15.24;86.70
20862;DHT22;10591;52.532;13.348;2022-10-18T15:20:36;15.16;87.27
20862;DHT22;10591;52.532;13.348;2022-10-18T15:23:30;15.09;87.30
20862;DHT22;10591;52.532;13.348;2022-10-18T15:26:04;15.15;87.17
20862;DHT22;10591;52.532;13.348;2022-10-18T15:28:40;15.07;87.55
20862;DHT22;10591;52.532;13.348;2022-10-18T15:31:33;14.97;87.83
20862;DHT22;10591;52.532;13.348;2022-10-18T15:34:19;14.86;87.81
20862;DHT22;10591;52.532;13.348;2022-10-18T15:36:51;14.78;87.78
20862;DHT22;10591;52.532;13.348;2022-10-18T15:39:27;14.73;88.06
20862;DHT22;10591;52.532;13.348;2022-10-18T15:42:01;14.66;87.91
20862;DHT22;10591;52.532;13.348;2022-10-18T15:44:48;14.61;88.25
20862;DHT22;10591;52.532;13.348;2022-10-18T15:47:20;14.59;88.37
20862;DHT22;10591;52.532;13.348;2022-10-18T15:49:57;14.46;88.32
20862;DHT22;10591;52.532;13.348;2022-10-18T15:52:41;14.44;88.49
20862;DHT22;10591;52.532;13.348;2022-10-18T15:58:17;14.35;88.61
20862;DHT22;10591;52.532;13.348;2022-10-18T16:00:49;14.38;88.69
20862;DHT22;10591;52.532;13.348;2022-10-18T16:03:20;14.24;88.54
20862;DHT22;10591;52.532;13.348;2022-10-18T16:06:02;14.16;88.31
20862;DHT22;10591;52.532;13.348;2022-10-18T16:08:34;14.13;87.84
20862;DHT22;10591;52.532;13.348;2022-10-18T16:11:05;14.12;88.05
20862;DHT22;10591;52.532;13.348;2022-10-18T16:13:36;14.06;87.89
20862;DHT22;10591;52.532;13.348;2022-10-18T16:16:08;14.07;88.29
20862;DHT22;10591;52.532;13.348;2022-10-18T16:18:38;14.02;88.48
20862;DHT22;10591;52.532;13.348;2022-10-18T16:21:17;13.96;88.65
20862;DHT22;10591;52.532;13.348;2022-10-18T16:23:49;13.92;88.77
20862;DHT22;10591;52.532;13.348;2022-10-18T16:26:20;13.88;88.91
20862;DHT22;10591;52.532;13.348;2022-10-18T16:28:52;13.85;89.06
20862;DHT22;10591;52.532;13.348;2022-10-18T16:31:28;13.84;89.22
20862;DHT22;10591;52.532;13.348;2022-10-18T16:33:58;13.84;89.31
20862;DHT22;10591;52.532;13.348;2022-10-18T16:36:32;13.79;89.30
20862;DHT22;10591;52.532;13.348;2022-10-18T16:39:05;13.76;89.29
20862;DHT22;10591;52.532;13.348;2022-10-18T16:41:36;13.73;89.30
20862;DHT22;10591;52.532;13.348;2022-10-18T16:44:06;13.68;89.32
20862;DHT22;10591;52.532;13.348;2022-10-18T16:46:37;13.67;89.10
20862;DHT22;10591;52.532;13.348;2022-10-18T16:49:44;13.64;88.94
20862;DHT22;10591;52.532;13.348;2022-10-18T16:51:49;13.61;89.00
20862;DHT22;10591;52.532;13.348;2022-10-18T16:54:20;13.61;88.89
20862;DHT22;10591;52.532;13.348;2022-10-18T16:56:51;13.60;88.79
20862;DHT22;10591;52.532;13.348;2022-10-18T16:59:30;13.56;89.01
20862;DHT22;10591;52.532;13.348;2022-10-18T17:02:00;13.54;89.10
20862;DHT22;10591;52.532;13.348;2022-10-18T17:04:32;13.48;89.17
20862;DHT22;10591;52.532;13.348;2022-10-18T17:07:03;13.46;89.16
20862;DHT22;10591;52.532;13.348;2022-10-18T17:09:33;13.47;89.19
20862;DHT22;10591;52.532;13.348;2022-10-18T17:12:05;13.46;89.26
20862;DHT22;10591;52.532;13.348;2022-10-18T17:14:35;13.42;89.29
20862;DHT22;10591;52.532;13.348;2022-10-18T17:17:11;13.36;89.22
20862;DHT22;10591;52.532;13.348;2022-10-18T17:19:41;13.36;89.30
20862;DHT22;10591;52.532;13.348;2022-10-18T17:22:12;13.42;89.29
20862;DHT22;10591;52.532;13.348;2022-10-18T17:24:42;13.42;88.43
20862;DHT22;10591;52.532;13.348;2022-10-18T17:27:13;13.38;88.74
20862;DHT22;10591;52.532;13.348;2022-10-18T17:29:43;13.38;89.01
20862;DHT22;10591;52.532;13.348;2022-10-18T17:32:13;13.36;89.05
20862;DHT22;10591;52.532;13.348;2022-10-18T17:34:44;13.32;89.04
20862;DHT22;10591;52.532;13.348;2022-10-18T17:37:14;13.28;89.10
20862;DHT22;10591;52.532;13.348;2022-10-18T17:39:45;13.27;89.21
20862;DHT22;10591;52.532;13.348;2022-10-18T17:42:15;13.25;89.30
20862;DHT22;10591;52.532;13.348;2022-10-18T17:44:46;13.20;89.31
20862;DHT22;10591;52.532;13.348;2022-10-18T17:47:16;13.18;89.39
20862;DHT22;10591;52.532;13.348;2022-10-18T17:49:47;13.14;89.48
20862;DHT22;10591;52.532;13.348;2022-10-18T17:52:17;13.08;89.53